Terminal Aerodrome Forecast
Issued by NWS Charleston, WV

Current Version | Previous Version | Graphics & Text | Print | Product List | Glossary On
Versions: 1 2 3 4 5 6 7 8 9 10 11 12 13 14 15 16 17 18 19 20 21 22 23
000
FTUS41 KRLX 230500 RRA
TAFPKB
TAF
KPKB 230550Z 2306/2406 00000KT P6SM OVC025
     FM231000 00000KT P6SM SCT025
     FM231400 06004KT P6SM SCT045
     FM232300 08005KT 5SM -RA OVC040
     FM240000 06005KT 5SM -RA BR OVC025
     FM240200 VRB03KT 1SM -RASN BR OVC015
     FM240400 VRB03KT 3/4SM -SN BR OVC008=

USA.gov is the U.S. government's official web portal to all federal, state and local government web resources and services.